Time;durP1;ratioP1;P1;durP2;ratioP2;P2;SDS_P1;SDS_P2;PMS_P1;PMS_P2;Temp;Humidity;BMP_temperature;BMP_pressure;BME280_temperature;BME280_humidity;BME280_pressure;Samples;Min_cycle;Max_cycle;Signal;HPM_P1;HPM_P2
2022/03/15 00:00:55;;;;;;;7.23;0.90;;;;;;;8.01;63.29;99732.06;5068538;28;20208;-50
2022/03/15 00:03:23;;;;;;;3.97;0.80;;;;;;;8.17;62.02;99734.44;5068111;28;20189;-48
2022/03/15 00:05:50;;;;;;;6.37;1.00;;;;;;;8.26;61.34;99723.41;5068212;28;20184;-51
2022/03/15 00:08:17;;;;;;;5.70;0.90;;;;;;;8.26;61.41;99724.22;5068360;28;20192;-50
2022/03/15 00:10:45;;;;;;;2.60;0.83;;;;;;;8.40;60.50;99720.66;5068248;28;20282;-48
2022/03/15 00:13:11;;;;;;;3.67;1.17;;;;;;;8.40;60.55;99725.00;5068159;28;20300;-51
2022/03/15 00:15:38;;;;;;;4.30;0.90;;;;;;;8.43;60.89;99719.59;5067853;28;20750;-49
2022/03/15 00:18:05;;;;;;;9.30;1.80;;;;;;;8.54;59.99;99714.47;5068151;28;20553;-51
2022/03/15 00:20:33;;;;;;;4.67;1.47;;;;;;;8.48;60.29;99712.28;5055099;28;20283;-49
2022/03/15 00:23:00;;;;;;;3.10;1.00;;;;;;;8.42;61.31;99712.72;5055821;28;20189;-50
2022/03/15 00:25:29;;;;;;;3.77;1.03;;;;;;;8.31;62.61;99710.91;5057530;28;20674;-48
2022/03/15 00:27:56;;;;;;;6.50;1.20;;;;;;;8.18;62.86;99710.09;5060714;28;20635;-51
2022/03/15 00:30:25;;;;;;;4.00;0.97;;;;;;;8.13;62.86;99708.66;5061435;28;20359;-51
2022/03/15 00:32:52;;;;;;;3.57;0.90;;;;;;;8.08;63.17;99702.94;5059828;28;20224;-52
2022/03/15 00:35:20;;;;;;;3.67;0.90;;;;;;;8.02;63.19;99697.34;5061305;28;20319;-49
2022/03/15 00:37:51;;;;;;;4.63;0.90;;;;;;;7.96;63.22;99690.81;5060537;28;20735;-51
2022/03/15 00:40:19;;;;;;;3.93;1.10;;;;;;;7.91;63.69;99695.50;5060828;28;20684;-49
2022/03/15 00:42:51;;;;;;;3.73;0.83;;;;;;;7.82;64.70;99681.38;5060780;28;20194;-48
2022/03/15 00:45:23;;;;;;;5.33;1.07;;;;;;;7.75;65.01;99686.16;5060681;28;20202;-49
2022/03/15 00:47:50;;;;;;;4.23;1.00;;;;;;;7.71;64.69;99683.91;5060697;28;20222;-51
2022/03/15 00:50:17;;;;;;;6.23;1.00;;;;;;;7.66;64.93;99679.00;5058777;28;20222;-49
2022/03/15 00:52:44;;;;;;;3.00;0.93;;;;;;;7.63;65.75;99681.81;5059996;28;20369;-51
2022/03/15 00:55:12;;;;;;;2.13;0.80;;;;;;;7.59;65.86;99678.59;5058544;28;20282;-51
2022/03/15 00:57:39;;;;;;;2.10;0.87;;;;;;;7.68;64.55;99680.56;5058923;28;20621;-51
2022/03/15 01:00:08;;;;;;;2.73;0.97;;;;;;;7.71;64.76;99684.72;5061160;28;20229;-52
2022/03/15 01:02:35;;;;;;;4.63;1.10;;;;;;;7.78;64.07;99679.94;5060301;28;20197;-51
2022/03/15 01:05:06;;;;;;;2.37;0.90;;;;;;;7.90;62.12;99681.69;5059050;28;20665;-48
2022/03/15 01:07:33;;;;;;;2.57;0.97;;;;;;;8.00;61.67;99676.66;5058801;28;20214;-49
2022/03/15 01:10:00;;;;;;;3.03;1.30;;;;;;;8.09;61.92;99677.75;5060330;28;20209;-52
2022/03/15 01:12:28;;;;;;;3.37;1.07;;;;;;;8.11;60.65;99674.13;5061013;28;20203;-48
2022/03/15 01:14:54;;;;;;;2.27;0.90;;;;;;;8.37;58.16;99668.84;5058701;28;20227;-51
2022/03/15 01:17:21;;;;;;;6.90;0.70;;;;;;;8.37;59.63;99665.38;5059728;28;20279;-48
2022/03/15 01:19:48;;;;;;;2.47;0.70;;;;;;;8.36;60.59;99667.16;5059209;28;20316;-52
2022/03/15 01:22:15;;;;;;;6.00;0.90;;;;;;;8.47;58.66;99658.56;5055470;28;20202;-48
2022/03/15 01:24:41;;;;;;;4.93;1.33;;;;;;;8.50;58.80;99663.59;5057503;28;20194;-51
2022/03/15 01:27:08;;;;;;;3.20;0.90;;;;;;;8.49;58.65;99666.28;5058008;28;20227;-50
2022/03/15 01:29:36;;;;;;;3.23;0.73;;;;;;;8.51;59.20;99665.25;5059369;28;20654;-50
2022/03/15 01:32:04;;;;;;;2.63;0.90;;;;;;;8.50;58.95;99662.75;5060783;28;20219;-51
2022/03/15 01:34:30;;;;;;;6.20;1.10;;;;;;;8.46;59.58;99664.72;5062169;28;20205;-49
2022/03/15 01:36:58;;;;;;;4.40;1.40;;;;;;;8.33;61.34;99670.00;5062951;28;20206;-52
2022/03/15 01:39:25;;;;;;;4.40;1.80;;;;;;;8.19;62.91;99664.94;5064012;28;20208;-50
2022/03/15 01:41:52;;;;;;;7.33;1.83;;;;;;;8.03;63.18;99671.25;5064786;28;20218;-52
2022/03/15 01:44:20;;;;;;;5.50;1.83;;;;;;;7.94;64.04;99688.31;5063654;28;20294;-49
2022/03/15 01:46:50;;;;;;;10.03;3.77;;;;;;;7.80;64.47;99683.25;5063999;28;20219;-49
2022/03/15 01:49:19;;;;;;;10.53;4.90;;;;;;;7.36;66.56;99680.19;5065054;28;20183;-50
2022/03/15 01:51:47;;;;;;;10.23;5.20;;;;;;;7.22;67.16;99687.13;5062898;28;20560;-51
2022/03/15 01:54:15;;;;;;;10.77;6.60;;;;;;;7.01;68.51;99683.38;5061564;28;20255;-51
2022/03/15 01:56:43;;;;;;;14.23;7.50;;;;;;;6.84;68.72;99685.31;5062448;28;20204;-49
2022/03/15 01:59:13;;;;;;;14.97;7.13;;;;;;;6.73;70.04;99686.03;5068781;28;20703;-52
2022/03/15 02:01:42;;;;;;;14.30;6.97;;;;;;;6.62;70.19;99684.09;5072384;28;20216;-50
2022/03/15 02:04:11;;;;;;;13.83;7.03;;;;;;;6.57;70.93;99673.19;5072839;28;20189;-53
2022/03/15 02:06:41;;;;;;;14.57;6.60;;;;;;;6.55;70.53;99682.84;5073564;28;20647;-49
2022/03/15 02:09:09;;;;;;;13.07;6.40;;;;;;;6.48;71.63;99684.16;5073620;28;20189;-47
2022/03/15 02:11:36;;;;;;;14.40;6.20;;;;;;;6.46;71.93;99676.50;5073274;28;20239;-48
2022/03/15 02:14:03;;;;;;;11.83;6.13;;;;;;;6.41;72.67;99677.69;5072913;28;20671;-47
2022/03/15 02:16:30;;;;;;;10.50;5.90;;;;;;;6.37;71.75;99668.47;5073343;28;20210;-48
2022/03/15 02:18:58;;;;;;;10.07;5.90;;;;;;;6.37;72.69;99668.47;5073388;28;20196;-48
2022/03/15 02:21:27;;;;;;;11.37;5.60;;;;;;;6.30;73.64;99666.28;5073229;28;20212;-48
2022/03/15 02:23:54;;;;;;;16.07;7.20;;;;;;;6.30;73.92;99663.69;5072689;28;20220;-52
2022/03/15 02:26:21;;;;;;;13.93;7.03;;;;;;;6.26;73.96;99658.78;5062573;28;20194;-50
2022/03/15 02:28:48;;;;;;;14.37;6.43;;;;;;;6.23;74.49;99658.97;5062307;28;20207;-49
2022/03/15 02:31:15;;;;;;;10.33;6.30;;;;;;;6.22;75.06;99659.91;5062416;28;20212;-49
2022/03/15 02:33:42;;;;;;;8.77;5.30;;;;;;;6.20;74.91;99658.25;5063101;28;20202;-50
2022/03/15 02:36:09;;;;;;;12.10;5.27;;;;;;;6.19;76.08;99660.94;5068924;28;20192;-50
2022/03/15 02:38:37;;;;;;;9.20;4.80;;;;;;;6.05;76.60;99654.03;5071968;28;20250;-48
2022/03/15 02:41:04;;;;;;;8.37;4.37;;;;;;;6.02;76.99;99657.66;5070459;28;20224;-52
2022/03/15 02:43:32;;;;;;;8.57;4.63;;;;;;;5.99;76.32;99655.22;5070663;28;20208;-51
2022/03/15 02:46:00;;;;;;;7.97;4.03;;;;;;;6.00;77.33;99653.44;5071429;28;20180;-48
2022/03/15 02:48:27;;;;;;;10.63;4.27;;;;;;;5.98;77.03;99653.56;5071593;28;20192;-49
2022/03/15 02:50:58;;;;;;;8.17;3.97;;;;;;;5.97;76.29;99649.28;5071740;28;20211;-52
2022/03/15 02:53:25;;;;;;;8.57;3.43;;;;;;;5.99;77.44;99641.41;5071331;28;20382;-49
2022/03/15 02:55:54;;;;;;;8.80;3.87;;;;;;;5.98;77.47;99645.78;5071664;28;20194;-46
2022/03/15 02:58:21;;;;;;;10.07;3.80;;;;;;;6.00;77.72;99653.44;5071532;28;20273;-49
2022/03/15 03:00:48;;;;;;;10.50;4.10;;;;;;;6.02;78.07;99660.25;5070633;28;20315;-50
2022/03/15 03:03:15;;;;;;;6.67;3.60;;;;;;;5.98;77.70;99650.97;5067451;28;20191;-47
2022/03/15 03:05:42;;;;;;;7.53;3.23;;;;;;;5.97;78.06;99649.28;5069194;28;20204;-48
2022/03/15 03:08:10;;;;;;;8.63;2.60;;;;;;;5.95;77.55;99660.66;5067766;28;20499;-48
2022/03/15 03:10:37;;;;;;;7.70;3.00;;;;;;;5.97;78.49;99654.47;5071851;28;20254;-47
2022/03/15 03:13:06;;;;;;;7.10;2.40;;;;;;;5.98;78.03;99653.56;5072129;28;20213;-50
2022/03/15 03:15:33;;;;;;;4.97;2.63;;;;;;;5.96;78.04;99646.78;5072214;28;20193;-48
2022/03/15 03:18:00;;;;;;;5.57;2.97;;;;;;;5.97;77.92;99656.22;5070821;28;20526;-51
2022/03/15 03:20:27;;;;;;;7.80;3.00;;;;;;;5.94;78.33;99648.63;5072025;28;20583;-48
2022/03/15 03:22:58;;;;;;;3.07;1.83;;;;;;;6.06;78.06;99645.31;5071802;28;20187;-51
2022/03/15 03:25:26;;;;;;;5.30;2.03;;;;;;;5.99;77.99;99644.84;5071835;28;20552;-50
2022/03/15 03:27:58;;;;;;;5.23;1.73;;;;;;;6.00;77.72;99638.78;5072385;28;20202;-49
2022/03/15 03:30:27;;;;;;;6.93;1.93;;;;;;;5.97;78.91;99641.53;5072088;28;20208;-49
2022/03/15 03:32:54;;;;;;;6.07;1.70;;;;;;;6.01;78.80;99645.63;5071982;28;20190;-48
2022/03/15 03:35:21;;;;;;;4.83;1.70;;;;;;;5.95;77.98;99647.72;5071993;28;20195;-48
2022/03/15 03:37:49;;;;;;;4.07;1.43;;;;;;;5.88;78.78;99652.47;5072186;28;20717;-50
2022/03/15 03:40:15;;;;;;;7.00;1.97;;;;;;;5.84;78.11;99649.22;5072001;28;20220;-48
2022/03/15 03:42:45;;;;;;;5.40;1.67;;;;;;;5.84;78.80;99650.97;5072203;28;20192;-47
2022/03/15 03:45:12;;;;;;;2.63;1.13;;;;;;;5.75;79.45;99645.44;5071189;28;20211;-51
2022/03/15 03:47:40;;;;;;;5.40;1.80;;;;;;;5.77;78.88;99645.38;5071882;28;20201;-47
2022/03/15 03:50:09;;;;;;;3.40;1.30;;;;;;;5.79;77.65;99645.25;5071886;28;20195;-47
2022/03/15 03:52:36;;;;;;;3.83;1.03;;;;;;;5.81;78.01;99643.41;5069810;28;20254;-51
2022/03/15 03:55:03;;;;;;;2.47;1.17;;;;;;;5.84;79.14;99640.63;5062406;28;20191;-47
2022/03/15 03:57:30;;;;;;;3.57;1.53;;;;;;;5.84;79.03;99645.81;5068667;28;20199;-48
2022/03/15 03:59:57;;;;;;;3.10;1.30;;;;;;;5.85;78.02;99631.91;5065530;28;20224;-52
2022/03/15 04:02:25;;;;;;;3.40;1.50;;;;;;;5.88;77.99;99627.38;5068660;28;20269;-48
2022/03/15 04:04:54;;;;;;;3.13;0.80;;;;;;;5.93;78.79;99631.44;5071282;28;20726;-47
2022/03/15 04:07:21;;;;;;;5.47;1.37;;;;;;;5.99;77.93;99633.63;5070289;28;20541;-49
2022/03/15 04:09:48;;;;;;;4.43;1.03;;;;;;;6.03;76.49;99633.41;5071447;28;20241;-48
2022/03/15 04:12:16;;;;;;;5.70;1.23;;;;;;;6.10;76.40;99631.22;5071154;28;20183;-48
2022/03/15 04:14:45;;;;;;;4.23;1.40;;;;;;;6.05;76.83;99628.94;5070790;28;20200;-48
2022/03/15 04:17:12;;;;;;;3.80;0.90;;;;;;;6.10;77.68;99625.22;5071098;28;20265;-49
2022/03/15 04:19:38;;;;;;;2.73;0.90;;;;;;;6.04;78.39;99619.50;5071496;28;20235;-47
2022/03/15 04:22:07;;;;;;;3.37;0.80;;;;;;;5.97;78.10;99620.78;5070825;28;20217;-49
2022/03/15 04:24:34;;;;;;;4.90;1.10;;;;;;;5.94;77.26;99623.56;5070920;28;20253;-50
2022/03/15 04:27:01;;;;;;;3.53;1.20;;;;;;;5.91;77.65;99614.22;5071235;28;20214;-50
2022/03/15 04:29:28;;;;;;;2.47;0.83;;;;;;;5.94;78.83;99618.38;5071141;28;20185;-47
2022/03/15 04:31:55;;;;;;;3.47;1.00;;;;;;;5.95;78.78;99620.06;5070802;28;20256;-48
2022/03/15 04:34:23;;;;;;;2.00;0.93;;;;;;;6.03;78.17;99614.41;5069494;28;20179;-51
2022/03/15 04:36:50;;;;;;;3.43;0.77;;;;;;;5.99;77.71;99626.72;5060305;28;20219;-48
2022/03/15 04:39:18;;;;;;;3.53;0.90;;;;;;;5.98;77.84;99619.84;5063063;28;20199;-48
2022/03/15 04:41:46;;;;;;;3.23;0.93;;;;;;;6.04;77.30;99622.09;5070165;28;20216;-49
2022/03/15 04:44:13;;;;;;;4.63;1.10;;;;;;;5.99;76.68;99626.72;5070221;28;20568;-49
2022/03/15 04:46:40;;;;;;;5.20;1.87;;;;;;;6.07;76.38;99635.78;5070561;28;20278;-50
2022/03/15 04:49:07;;;;;;;7.57;2.80;;;;;;;6.14;75.53;99632.69;5071113;28;20188;-49
2022/03/15 04:51:33;;;;;;;7.07;3.70;;;;;;;6.11;75.67;99634.66;5070500;28;20216;-47
2022/03/15 04:54:00;;;;;;;9.17;4.17;;;;;;;6.03;76.97;99638.56;5069718;28;20222;-47
2022/03/15 04:56:29;;;;;;;9.83;3.87;;;;;;;5.94;77.43;99635.69;5069009;28;20183;-47
2022/03/15 04:58:55;;;;;;;9.17;3.90;;;;;;;5.90;77.43;99635.06;5050390;28;20179;-47
2022/03/15 05:01:22;;;;;;;11.73;3.90;;;;;;;5.94;76.87;99641.72;5050710;28;20564;-51
2022/03/15 05:03:49;;;;;;;7.67;3.90;;;;;;;5.97;76.82;99636.34;5050498;28;20237;-48
2022/03/15 05:06:16;;;;;;;9.30;4.07;;;;;;;6.09;75.04;99634.75;5049957;28;20188;-47
2022/03/15 05:08:43;;;;;;;9.27;3.67;;;;;;;6.07;75.54;99635.78;5050380;28;20192;-48
2022/03/15 05:11:09;;;;;;;9.30;3.60;;;;;;;6.08;76.05;99640.06;5050491;28;20276;-47
2022/03/15 05:13:40;;;;;;;9.13;3.40;;;;;;;6.03;76.08;99635.13;5050668;28;20199;-52
2022/03/15 05:16:10;;;;;;;8.97;3.87;;;;;;;6.01;75.69;99632.66;5050163;28;20271;-50
2022/03/15 05:18:36;;;;;;;11.40;4.13;;;;;;;6.07;75.87;99622.84;5050722;28;20198;-51
2022/03/15 05:21:04;;;;;;;9.50;3.40;;;;;;;6.10;76.48;99625.22;5050616;28;20683;-50
2022/03/15 05:23:31;;;;;;;7.23;3.47;;;;;;;6.08;76.32;99617.53;5050254;28;20267;-47
2022/03/15 05:25:58;;;;;;;9.33;3.87;;;;;;;6.04;77.12;99621.25;5054761;28;20218;-48
2022/03/15 05:28:25;;;;;;;8.47;3.50;;;;;;;6.04;77.35;99609.13;5058826;28;20196;-49
2022/03/15 05:30:53;;;;;;;9.03;3.33;;;;;;;6.02;77.15;99623.97;5070241;28;20226;-49
2022/03/15 05:33:20;;;;;;;6.57;3.30;;;;;;;6.00;78.25;99622.34;5070384;28;20275;-49
2022/03/15 05:35:47;;;;;;;8.80;3.37;;;;;;;6.02;78.03;99631.72;5069799;28;20184;-49
2022/03/15 05:38:14;;;;;;;9.20;3.30;;;;;;;6.02;78.01;99618.78;5070016;28;20188;-47
2022/03/15 05:40:41;;;;;;;8.53;3.17;;;;;;;6.01;78.47;99609.34;5070020;28;20220;-47
2022/03/15 05:43:08;;;;;;;9.37;3.17;;;;;;;6.03;78.83;99610.06;5070131;28;20660;-51
2022/03/15 05:45:35;;;;;;;8.60;3.60;;;;;;;6.01;79.03;99611.91;5069677;28;20187;-50
2022/03/15 05:48:03;;;;;;;10.23;5.30;;;;;;;6.00;79.10;99617.16;5070352;28;20188;-51
2022/03/15 05:50:30;;;;;;;11.00;3.90;;;;;;;5.98;79.02;99619.84;5070213;28;20204;-49
2022/03/15 05:52:58;;;;;;;8.10;3.60;;;;;;;5.99;79.65;99626.72;5069788;28;20211;-49
2022/03/15 05:55:24;;;;;;;9.87;3.80;;;;;;;5.99;79.00;99615.50;5069394;28;20188;-48
2022/03/15 05:57:51;;;;;;;7.43;3.40;;;;;;;5.99;79.56;99618.09;5061645;28;20219;-49
2022/03/15 06:00:20;;;;;;;8.30;3.37;;;;;;;6.00;79.53;99625.81;5066687;28;20207;-49
2022/03/15 06:02:47;;;;;;;9.60;3.77;;;;;;;5.99;79.62;99631.88;5061283;28;20196;-48
2022/03/15 06:05:15;;;;;;;7.73;3.17;;;;;;;6.10;80.44;99623.47;5069360;28;20193;-49
2022/03/15 06:07:46;;;;;;;6.13;3.10;;;;;;;6.10;81.22;99630.41;5069973;28;20187;-50
2022/03/15 06:10:13;;;;;;;11.70;3.53;;;;;;;6.08;80.46;99629.69;5070024;28;20209;-49
2022/03/15 06:12:40;;;;;;;8.43;3.60;;;;;;;6.11;80.66;99629.50;5069953;28;20192;-49
2022/03/15 06:15:08;;;;;;;7.30;2.80;;;;;;;6.19;81.01;99629.84;5069666;28;20441;-49
2022/03/15 06:17:44;;;;;;;5.80;2.50;;;;;;;6.17;82.27;99631.69;5065216;28;20184;-51
2022/03/15 06:20:12;;;;;;;9.03;3.40;;;;;;;6.24;81.50;99638.16;5066741;28;20212;-48
2022/03/15 06:22:40;;;;;;;8.40;3.00;;;;;;;6.23;81.32;99631.31;5073035;28;20671;-48
2022/03/15 06:25:08;;;;;;;8.33;3.10;;;;;;;6.28;80.38;99634.44;5072914;28;20204;-47
2022/03/15 06:27:35;;;;;;;7.30;3.43;;;;;;;6.40;77.76;99627.63;5073590;28;20274;-48
2022/03/15 06:30:02;;;;;;;7.90;5.33;;;;;;;6.47;77.45;99636.66;5073253;28;20294;-49
2022/03/15 06:32:29;;;;;;;19.53;10.40;;;;;;;6.50;76.31;99630.44;5072837;28;20807;-48
2022/03/15 06:34:58;;;;;;;25.13;14.20;;;;;;;6.56;76.23;99632.63;5072807;28;20649;-49
2022/03/15 06:37:25;;;;;;;19.27;10.10;;;;;;;6.62;74.78;99634.00;5073248;28;20656;-48
2022/03/15 06:39:54;;;;;;;116.40;75.47;;;;;;;6.60;74.36;99628.91;5073246;28;20196;-48
2022/03/15 06:42:21;;;;;;;13.27;6.30;;;;;;;6.64;74.46;99629.53;5072707;28;20204;-49
2022/03/15 06:44:48;;;;;;;8.97;4.43;;;;;;;6.55;75.94;99620.59;5071392;28;20558;-48
2022/03/15 06:47:15;;;;;;;8.87;4.37;;;;;;;6.56;75.64;99606.69;5072981;28;20180;-48
2022/03/15 06:49:42;;;;;;;11.77;4.60;;;;;;;6.71;73.82;99597.06;5072759;28;20271;-49
2022/03/15 06:52:10;;;;;;;7.53;4.30;;;;;;;6.65;74.17;99592.28;5072728;28;20263;-47
2022/03/15 06:54:37;;;;;;;10.27;4.90;;;;;;;6.61;76.36;99591.66;5071093;28;20184;-48
2022/03/15 06:57:05;;;;;;;9.27;5.10;;;;;;;6.59;76.46;99590.09;5071118;28;20565;-48
2022/03/15 06:59:32;;;;;;;11.97;6.27;;;;;;;6.58;77.35;99589.25;5072981;28;20213;-47
2022/03/15 07:02:00;;;;;;;11.60;5.65;;;;;;;6.65;78.27;99590.50;5071437;28;20458;-49
2022/03/15 07:04:27;;;;;;;12.83;5.80;;;;;;;6.65;78.04;99590.50;5072359;28;20197;-49
2022/03/15 07:06:54;;;;;;;10.13;7.37;;;;;;;6.72;78.11;99577.13;5073031;28;20212;-48
2022/03/15 07:09:20;;;;;;;11.43;6.20;;;;;;;6.75;78.16;99584.72;5073032;28;20185;-50
2022/03/15 07:11:48;;;;;;;13.13;7.67;;;;;;;6.76;77.86;99581.19;5072227;28;20209;-50
2022/03/15 07:14:16;;;;;;;11.47;7.63;;;;;;;6.76;78.33;99581.19;5071920;28;20180;-51
2022/03/15 07:16:42;;;;;;;11.33;5.93;;;;;;;6.76;78.04;99576.84;5071974;28;20188;-51
2022/03/15 07:19:09;;;;;;;8.27;4.17;;;;;;;6.81;79.48;99583.50;5072552;28;20187;-52
2022/03/15 07:21:36;;;;;;;11.63;5.00;;;;;;;6.85;80.05;99571.97;5072171;28;20213;-52
2022/03/15 07:24:03;;;;;;;10.20;4.73;;;;;;;6.87;79.97;99577.88;5071611;28;20246;-52
2022/03/15 07:26:30;;;;;;;8.30;4.33;;;;;;;6.89;80.61;99570.81;5071984;28;20191;-49
2022/03/15 07:28:57;;;;;;;6.53;3.70;;;;;;;6.89;80.79;99571.63;5071723;28;20553;-49
2022/03/15 07:31:25;;;;;;;9.20;3.10;;;;;;;6.94;82.14;99564.38;5070726;28;20209;-50
2022/03/15 07:33:52;;;;;;;11.83;3.83;;;;;;;6.98;83.10;99569.34;5071840;28;20220;-50
2022/03/15 07:36:19;;;;;;;6.77;3.37;;;;;;;7.01;84.04;99564.78;5071701;28;20196;-49
2022/03/15 07:38:46;;;;;;;7.13;2.53;;;;;;;7.05;84.00;99568.00;5071576;28;20295;-50
2022/03/15 07:41:13;;;;;;;4.90;3.20;;;;;;;7.01;82.87;99550.97;5070399;28;20224;-49
2022/03/15 07:43:40;;;;;;;6.87;3.03;;;;;;;7.06;83.70;99549.72;5071085;28;20314;-48
2022/03/15 07:46:07;;;;;;;8.67;3.00;;;;;;;7.11;83.86;99544.22;5070960;28;20715;-50
2022/03/15 07:48:37;;;;;;;7.80;3.67;;;;;;;7.15;85.19;99544.81;5071546;28;20584;-49
2022/03/15 07:51:03;;;;;;;7.73;3.33;;;;;;;7.18;85.20;99537.66;5071279;28;20456;-50
2022/03/15 07:53:30;;;;;;;14.80;4.93;;;;;;;7.20;85.05;99538.41;5070596;28;20203;-50
2022/03/15 07:56:00;;;;;;;8.53;4.67;;;;;;;7.23;85.66;99533.00;5070693;28;20183;-51
2022/03/15 07:58:27;;;;;;;8.00;4.20;;;;;;;7.33;85.08;99532.34;5071074;28;20189;-50
2022/03/15 08:00:56;;;;;;;6.80;4.17;;;;;;;7.30;85.02;99527.38;5071626;28;20205;-50
2022/03/15 08:03:23;;;;;;;9.07;3.63;;;;;;;7.40;84.53;99528.38;5071148;28;20278;-52
2022/03/15 08:05:52;;;;;;;9.33;4.13;;;;;;;7.41;85.82;99509.25;5070778;28;20190;-51
2022/03/15 08:08:18;;;;;;;13.20;4.17;;;;;;;7.46;86.38;99516.72;5071108;28;20185;-50
2022/03/15 08:10:45;;;;;;;7.97;3.93;;;;;;;7.52;85.36;99517.09;5071698;28;20205;-49
2022/03/15 08:13:12;;;;;;;8.70;4.20;;;;;;;7.56;85.14;99511.69;5069710;28;20201;-50
2022/03/15 08:15:40;;;;;;;9.87;3.80;;;;;;;7.60;85.77;99511.38;5070619;28;20203;-49
2022/03/15 08:18:06;;;;;;;6.73;3.53;;;;;;;7.64;86.05;99512.81;5070854;28;20192;-52
2022/03/15 08:20:33;;;;;;;5.77;2.70;;;;;;;7.65;89.12;99511.88;5069348;28;20225;-49
2022/03/15 08:23:02;;;;;;;5.83;2.33;;;;;;;7.66;90.64;99516.13;5070661;28;20209;-50
2022/03/15 08:25:28;;;;;;;6.77;2.90;;;;;;;7.72;90.74;99512.25;5070378;28;20288;-49
2022/03/15 08:27:56;;;;;;;6.00;2.40;;;;;;;7.84;89.31;99510.56;5070879;28;20668;-49
2022/03/15 08:30:23;;;;;;;6.63;3.20;;;;;;;7.87;88.03;99507.72;5071126;28;20210;-49
2022/03/15 08:32:50;;;;;;;6.47;3.37;;;;;;;7.92;88.54;99522.97;5070357;28;20193;-49
2022/03/15 08:35:18;;;;;;;11.03;6.40;;;;;;;7.96;88.92;99524.41;5070288;28;20276;-52
2022/03/15 08:37:50;;;;;;;9.23;4.93;;;;;;;8.09;88.15;99526.94;5070638;28;20565;-49
2022/03/15 08:40:18;;;;;;;10.40;4.73;;;;;;;8.06;88.19;99525.41;5069955;28;20245;-50
2022/03/15 08:42:47;;;;;;;4.67;2.17;;;;;;;7.98;86.11;99519.94;5070594;28;20272;-49
2022/03/15 08:45:14;;;;;;;6.17;4.20;;;;;;;8.05;87.02;99518.53;5069982;28;20265;-50
2022/03/15 08:47:41;;;;;;;13.67;7.37;;;;;;;8.06;86.59;99512.41;5070446;28;20198;-49
2022/03/15 08:50:10;;;;;;;40.60;24.00;;;;;;;8.03;84.87;99499.63;5070406;28;20218;-51
2022/03/15 08:52:37;;;;;;;13.43;8.23;;;;;;;8.17;86.55;99487.38;5069792;28;20232;-51
2022/03/15 08:55:04;;;;;;;14.63;8.30;;;;;;;8.34;87.83;99484.34;5068532;28;20557;-50
2022/03/15 08:57:32;;;;;;;14.17;7.80;;;;;;;8.51;86.34;99471.84;5068479;28;20201;-51
2022/03/15 08:59:59;;;;;;;13.70;7.40;;;;;;;8.48;86.08;99467.69;5070131;28;20207;-49
2022/03/15 09:02:26;;;;;;;16.33;7.60;;;;;;;8.59;86.58;99466.88;5070212;28;20209;-49
2022/03/15 09:04:53;;;;;;;14.83;6.93;;;;;;;8.62;86.74;99453.63;5070114;28;20221;-51
2022/03/15 09:07:19;;;;;;;18.17;7.00;;;;;;;8.55;86.76;99445.50;5070299;28;20201;-49
2022/03/15 09:09:46;;;;;;;18.57;8.70;;;;;;;8.52;86.56;99453.53;5070018;28;20186;-50
2022/03/15 09:12:13;;;;;;;15.13;7.70;;;;;;;8.52;87.56;99448.31;5070067;28;20263;-49
2022/03/15 09:14:41;;;;;;;17.07;6.47;;;;;;;8.52;87.55;99456.13;5069470;28;20189;-49
2022/03/15 09:17:08;;;;;;;10.93;5.67;;;;;;;8.51;87.12;99453.63;5070304;28;20703;-49
2022/03/15 09:19:35;;;;;;;12.33;5.90;;;;;;;8.47;88.14;99447.00;5070395;28;20191;-50
2022/03/15 09:22:03;;;;;;;11.23;5.13;;;;;;;8.50;87.22;99445.00;5065353;28;20208;-51
2022/03/15 09:24:33;;;;;;;11.20;5.57;;;;;;;8.49;88.22;99445.13;5060785;28;20282;-51
2022/03/15 09:26:59;;;;;;;14.70;6.30;;;;;;;8.53;88.26;99430.94;5062926;28;20271;-51
2022/03/15 09:29:26;;;;;;;11.43;5.83;;;;;;;8.56;89.01;99430.69;5060782;28;20188;-49
2022/03/15 09:31:55;;;;;;;10.17;4.50;;;;;;;8.56;88.36;99423.72;5058676;28;20792;-51
2022/03/15 09:34:22;;;;;;;8.47;4.97;;;;;;;8.55;87.62;99421.22;5059477;28;20673;-51
2022/03/15 09:36:50;;;;;;;10.70;6.00;;;;;;;8.53;85.00;99412.72;5060833;28;20214;-50
2022/03/15 09:39:18;;;;;;;11.53;6.20;;;;;;;8.44;84.16;99403.81;5059404;28;20187;-51
2022/03/15 09:41:48;;;;;;;12.30;5.97;;;;;;;8.40;85.25;99400.63;5059395;28;20228;-50
2022/03/15 09:44:18;;;;;;;10.80;5.60;;;;;;;8.26;86.74;99403.47;5058518;28;20197;-52
2022/03/15 09:46:50;;;;;;;11.90;5.77;;;;;;;8.17;86.47;99406.75;5060080;28;20207;-50
2022/03/15 09:49:19;;;;;;;12.90;6.63;;;;;;;8.17;86.60;99410.16;5057685;28;20224;-53
2022/03/15 09:51:46;;;;;;;14.20;6.77;;;;;;;8.03;86.05;99411.22;5060140;28;20236;-51
2022/03/15 09:54:14;;;;;;;20.37;8.50;;;;;;;7.97;87.32;99420.28;5062841;28;20600;-51
2022/03/15 09:56:41;;;;;;;16.40;8.17;;;;;;;8.07;86.88;99424.81;5063532;28;20194;-50
2022/03/15 09:59:14;;;;;;;14.47;7.63;;;;;;;8.12;87.45;99426.13;5062984;28;20271;-49
2022/03/15 10:01:42;;;;;;;11.87;6.57;;;;;;;8.19;86.67;99418.69;5062752;28;20429;-50
2022/03/15 10:04:10;;;;;;;16.43;6.67;;;;;;;8.27;86.99;99420.72;5061902;28;20584;-49
2022/03/15 10:06:42;;;;;;;10.53;7.00;;;;;;;8.39;86.88;99418.94;5061761;28;20200;-48
2022/03/15 10:09:09;;;;;;;11.37;5.60;;;;;;;8.54;85.09;99412.59;5064095;28;20202;-47
2022/03/15 10:11:37;;;;;;;9.70;5.73;;;;;;;8.41;84.81;99398.84;5062036;28;20268;-50
2022/03/15 10:14:06;;;;;;;11.43;6.40;;;;;;;8.47;86.15;99400.16;5062578;28;20727;-49
2022/03/15 10:16:35;;;;;;;13.77;6.67;;;;;;;8.65;86.57;99393.53;5064276;28;20195;-49
2022/03/15 10:19:03;;;;;;;12.13;6.03;;;;;;;8.72;85.37;99388.72;5062896;28;20182;-48
2022/03/15 10:21:39;;;;;;;19.13;6.80;;;;;;;8.86;84.52;99377.19;5062194;28;20205;-51
2022/03/15 10:24:09;;;;;;;13.97;6.93;;;;;;;8.95;85.57;99363.44;5061559;28;20684;-54
2022/03/15 10:26:39;;;;;;;10.43;5.83;;;;;;;9.03;84.73;99349.81;5060439;28;20200;-49
2022/03/15 10:29:11;;;;;;;12.50;6.10;;;;;;;8.95;84.53;99347.81;5062714;28;20185;-48
2022/03/15 10:31:39;;;;;;;14.23;6.43;;;;;;;8.90;84.38;99349.16;5063753;28;20215;-49
2022/03/15 10:34:09;;;;;;;12.30;6.32;;;;;;;8.83;85.18;99341.00;5061703;28;20420;-48
2022/03/15 10:36:38;;;;;;;12.73;6.87;;;;;;;8.51;87.94;99326.13;5061865;28;20277;-48
2022/03/15 10:39:05;;;;;;;14.87;7.03;;;;;;;8.54;88.73;99326.75;5065215;28;20204;-49
2022/03/15 10:41:43;;;;;;;11.03;6.70;;;;;;;8.56;87.66;99322.25;5070529;28;20226;-52
2022/03/15 10:44:17;;;;;;;11.37;6.17;;;;;;;8.69;88.54;99319.47;5067115;28;20207;-53
2022/03/15 10:46:44;;;;;;;7.90;3.90;;;;;;;8.95;89.26;99315.78;5067584;28;20568;-43
2022/03/15 10:49:12;;;;;;;10.63;4.90;;;;;;;9.08;87.06;99323.41;5065745;28;20205;-44
2022/03/15 10:51:39;;;;;;;8.27;4.27;;;;;;;9.35;86.14;99332.53;5056161;28;20222;-44
2022/03/15 10:54:08;;;;;;;9.83;4.70;;;;;;;9.50;84.41;99327.84;5067886;28;20217;-57
2022/03/15 10:56:38;;;;;;;9.33;4.07;;;;;;;9.66;82.40;99328.22;5061899;28;20225;-50
2022/03/15 10:59:06;;;;;;;11.00;6.20;;;;;;;9.89;80.07;99310.66;5066917;28;20191;-49
2022/03/15 11:01:38;;;;;;;11.27;6.27;;;;;;;9.92;79.49;99325.22;5058594;28;20649;-48
2022/03/15 11:04:07;;;;;;;10.93;6.10;;;;;;;10.02;80.52;99325.25;5067019;28;20209;-49
2022/03/15 11:06:38;;;;;;;11.57;6.40;;;;;;;9.92;78.55;99327.00;5069504;28;20262;-52
2022/03/15 11:09:19;;;;;;;8.90;5.73;;;;;;;9.72;81.01;99319.91;5068250;28;20617;-52
2022/03/15 11:11:53;;;;;;;8.97;5.83;;;;;;;9.76;81.98;99315.25;5069026;28;20688;-53
2022/03/15 11:14:32;;;;;;;15.97;7.83;;;;;;;9.77;82.65;99313.47;5069138;28;20229;-50
2022/03/15 11:17:01;;;;;;;15.00;6.87;;;;;;;9.72;80.91;99309.47;5069154;28;20205;-51
2022/03/15 11:19:29;;;;;;;13.73;7.57;;;;;;;9.62;82.58;99295.56;5057775;28;20194;-50
2022/03/15 11:22:00;;;;;;;12.30;7.90;;;;;;;9.63;79.89;99301.56;5059106;28;20248;-51
2022/03/15 11:24:30;;;;;;;10.93;7.23;;;;;;;9.37;82.61;99289.75;5059241;28;20190;-53
2022/03/15 11:27:00;;;;;;;12.63;6.57;;;;;;;9.56;81.04;99280.41;5057891;28;20190;-51
2022/03/15 11:29:27;;;;;;;12.20;6.80;;;;;;;9.42;79.76;99261.56;5055217;28;20201;-50
2022/03/15 11:31:56;;;;;;;10.53;6.80;;;;;;;9.34;81.84;99261.34;5054699;28;20220;-53
2022/03/15 11:34:24;;;;;;;11.50;6.67;;;;;;;9.50;82.43;99254.88;5067099;28;20217;-54
2022/03/15 11:36:53;;;;;;;14.10;7.13;;;;;;;9.69;82.36;99246.31;5068842;28;20194;-52
2022/03/15 11:39:20;;;;;;;11.27;6.23;;;;;;;9.82;82.22;99236.50;5069100;28;20264;-49
2022/03/15 11:41:49;;;;;;;13.00;7.27;;;;;;;9.97;79.36;99242.22;5068697;28;20221;-52